Flag for United Kingdom

Past Weather in Worcester, England, United Kingdom — Yesterday and Last 2 Weeks

Currently: 30 °F. Passing clouds. (Weather station: Birmingham / Airport, United Kingdom). See more current weather

Past Weather in Worcester — Graph

°F

Worcester Temperature Yesterday

Maximum temperature yesterday: 43 °F (at 12:50 pm)
Minimum temperature yesterday: 32 °F (at 8:20 pm)
Average temperature yesterday: 37 °F

High & Low Weather Summary for the Past Weeks

 TemperatureHumidityPressure
High52 °F (Jan 19, 4:20 am)100% (Jan 8, 3:50 am)30.45 "Hg (Jan 8, 3:50 am)
Low27 °F (Jan 10, 1:50 am)66% (Jan 21, 11:50 am)28.68 "Hg (Jan 20, 9:20 pm)
Average40 °F90%29.86 "Hg
* Reported Jan 8 3:20 am — Jan 23 3:20 am, Worcester. Weather by CustomWeather, © 2021

Note: Actual official high and low records may vary slightly from our data, if they occured in-between our weather recording intervals... More about our weather records

Worcester Weather History for the Previous 24 Hours

Scroll right to see more
 ConditionsComfort  
Time TempWeatherWind HumidityBarometerVisibility
3:20 am
Sat, Jan 23
27 °FClear.No wind100%29.33 "Hg4 mi
2:50 am30 °FFog.No wind100%29.33 "HgN/A
2:20 am30 °FFog.No wind100%29.33 "Hg6 mi
1:50 am32 °FIce fog.No wind93%29.33 "Hg3 mi
1:20 am32 °FIce fog.No wind93%29.33 "Hg3 mi
12:50 am32 °FIce fog.No wind100%29.33 "Hg1 mi
12:20 am32 °FPassing clouds.No wind100%29.33 "Hg4 mi
11:50 pm
Fri, Jan 22
32 °FIce fog.5 mph100%29.33 "Hg1 mi
11:20 pm32 °FIce fog.3 mph100%29.33 "Hg2 mi
10:50 pm32 °FClear.3 mph100%29.33 "Hg10 mi
10:20 pm32 °FPassing clouds.2 mph100%29.33 "HgN/A
9:50 pm32 °FPassing clouds.1 mph100%29.33 "HgN/A
9:20 pm32 °FPartly cloudy.No wind100%29.30 "Hg4 mi
8:50 pm32 °FLight snow. Mostly cloudy.3 mph100%29.33 "Hg1 mi
8:20 pm32 °FLight snow. Partly cloudy.3 mph100%29.33 "Hg1 mi
7:50 pm34 °FSnow. Mostly cloudy.5 mph93%29.33 "Hg1 mi
7:20 pm36 °FLight snow. Passing clouds.6 mph93%29.30 "Hg2 mi
6:50 pm37 °FPassing clouds.3 mph93%29.30 "HgN/A
6:20 pm37 °FPassing clouds.3 mph93%29.30 "HgN/A
5:50 pm37 °FPartly cloudy.3 mph93%29.30 "HgN/A
5:20 pm39 °FLight rain. Partly cloudy.2 mph87%29.30 "HgN/A
4:50 pm39 °FPassing clouds.5 mph87%29.30 "HgN/A
4:20 pm39 °FPassing clouds.5 mph87%29.30 "HgN/A
3:50 pm43 °FPassing clouds.6 mph66%29.30 "HgN/A
3:20 pm43 °FPassing clouds.6 mph71%29.30 "HgN/A
2:50 pm43 °FPassing clouds.7 mph66%29.30 "HgN/A
2:20 pm43 °FPassing clouds.9 mph71%29.27 "HgN/A
1:50 pm43 °FPassing clouds.7 mph71%29.27 "HgN/A
1:20 pm43 °FPassing clouds.7 mph71%29.27 "HgN/A
12:50 pm43 °FPassing clouds.8 mph71%29.30 "HgN/A
12:20 pm41 °FPassing clouds.8 mph76%29.30 "HgN/A
11:50 am41 °FPassing clouds.7 mph81%29.30 "HgN/A
11:20 am41 °FSunny.6 mph76%29.30 "Hg10 mi
10:50 am39 °FPassing clouds.6 mph81%29.30 "HgN/A
9:50 am37 °FPassing clouds.6 mph81%29.27 "HgN/A
9:20 am37 °FPassing clouds.8 mph81%29.27 "HgN/A
8:20 am36 °FPassing clouds.7 mph87%29.24 "HgN/A
7:50 am36 °FClear.7 mph87%29.24 "Hg10 mi
7:20 am36 °FPassing clouds.8 mph87%29.21 "HgN/A
6:50 am36 °FClear.7 mph87%29.21 "Hg10 mi
6:20 am36 °FClear.8 mph87%29.21 "Hg10 mi
5:50 am36 °FClear.8 mph87%29.21 "Hg10 mi
5:20 am36 °FPassing clouds.8 mph87%29.18 "HgN/A
4:50 am36 °FPassing clouds.6 mph87%29.18 "HgN/A
4:20 am36 °FClear.7 mph87%29.18 "Hg10 mi
Weather by CustomWeather, © 2021

See weather overview